createdAt,value
2023-02-06T00:00:19.475Z,252.95
2023-02-06T00:03:51.503Z,277.15
2023-02-06T00:07:18.297Z,256.70
2023-02-06T00:10:50.411Z,243.13
2023-02-06T00:14:06.042Z,227.75
2023-02-06T00:17:45.466Z,239.60
2023-02-06T00:21:09.229Z,255.15
2023-02-06T00:24:30.676Z,231.50
2023-02-06T00:28:00.365Z,266.40
2023-02-06T00:31:42.037Z,271.92
2023-02-06T00:35:30.640Z,219.10
2023-02-06T00:39:20.404Z,249.52
2023-02-06T00:43:10.682Z,252.85
2023-02-06T00:46:44.648Z,263.25
2023-02-06T00:50:06.466Z,217.25
2023-02-06T00:53:32.824Z,218.63
2023-02-06T00:56:56.519Z,221.77
2023-02-06T01:00:23.285Z,217.75
2023-02-06T01:03:57.685Z,249.55
2023-02-06T01:07:37.040Z,244.18
2023-02-06T01:11:02.009Z,257.05
2023-02-06T01:18:19.601Z,219.73
2023-02-06T01:22:23.572Z,215.57
2023-02-06T01:26:27.201Z,204.13
2023-02-06T01:33:12.053Z,182.17
2023-02-06T01:36:16.599Z,221.55
2023-02-06T01:39:21.172Z,231.98
2023-02-06T01:42:24.458Z,222.70
2023-02-06T01:45:43.756Z,233.40
2023-02-06T01:48:50.821Z,182.90
2023-02-06T01:51:57.192Z,225.85
2023-02-06T01:55:05.584Z,211.50
2023-02-06T01:58:10.385Z,276.52
2023-02-06T02:01:14.297Z,208.90
2023-02-06T02:04:20.637Z,205.73
2023-02-06T02:07:27.463Z,219.10
2023-02-06T02:10:33.078Z,218.18
2023-02-06T02:13:38.261Z,213.50
2023-02-06T02:16:49.424Z,196.98
2023-02-06T02:20:39.241Z,219.63
2023-02-06T02:23:50.865Z,227.68
2023-02-06T02:27:14.962Z,232.65
2023-02-06T02:30:40.164Z,258.23
2023-02-06T02:34:08.037Z,250.65
2023-02-06T02:37:22.540Z,248.15
2023-02-06T02:40:32.686Z,239.23
2023-02-06T02:43:43.726Z,201.90
2023-02-06T02:46:50.767Z,213.27
2023-02-06T02:49:55.632Z,189.68
2023-02-06T02:53:02.189Z,190.45
2023-02-06T02:56:16.306Z,193.48
2023-02-06T02:59:24.155Z,200.20
2023-02-06T03:02:35.538Z,196.80
2023-02-06T03:08:53.446Z,240.88
2023-02-06T03:12:07.707Z,220.43
2023-02-06T03:15:25.264Z,213.00
2023-02-06T03:18:33.704Z,271.85
2023-02-06T03:21:38.159Z,218.02
2023-02-06T03:24:42.918Z,202.35
2023-02-06T03:27:47.946Z,203.05
2023-02-06T03:30:55.143Z,196.55
2023-02-06T03:34:03.093Z,209.48
2023-02-06T03:37:06.312Z,213.52
2023-02-06T03:40:12.278Z,221.25
2023-02-06T03:43:18.885Z,211.55
2023-02-06T03:46:24.250Z,263.45
2023-02-06T03:49:30.839Z,247.07
2023-02-06T03:52:39.546Z,257.02
2023-02-06T03:55:45.296Z,243.07
2023-02-06T03:58:49.046Z,239.25
2023-02-06T04:01:56.141Z,233.65
2023-02-06T04:04:59.471Z,295.88
2023-02-06T04:08:02.725Z,245.50
2023-02-06T04:11:07.392Z,237.18
2023-02-06T04:14:10.655Z,208.88
2023-02-06T04:17:18.751Z,278.20
2023-02-06T04:20:27.117Z,273.73
2023-02-06T04:23:30.377Z,249.63
2023-02-06T04:26:35.108Z,241.10
2023-02-06T04:29:38.420Z,207.35
2023-02-06T04:32:41.760Z,201.20
2023-02-06T04:35:44.940Z,239.73
2023-02-06T04:38:48.134Z,243.38
2023-02-06T04:41:52.936Z,265.98
2023-02-06T04:44:56.151Z,225.20
2023-02-06T04:47:59.649Z,300.27
2023-02-06T04:51:02.893Z,251.27
2023-02-06T04:54:06.532Z,262.92
2023-02-06T04:57:11.087Z,226.18
2023-02-06T05:00:15.710Z,247.25
2023-02-06T05:03:18.980Z,321.65
2023-02-06T05:06:22.226Z,285.23
2023-02-06T05:09:25.467Z,250.68
2023-02-06T05:12:30.377Z,257.38
2023-02-06T05:15:33.677Z,248.15
2023-02-06T05:18:37.275Z,265.48
2023-02-06T05:21:40.455Z,275.58
2023-02-06T05:24:43.770Z,343.55
2023-02-06T05:27:48.819Z,288.42
2023-02-06T05:30:52.339Z,295.20
2023-02-06T05:33:55.574Z,202.18
2023-02-06T05:36:58.948Z,231.52
2023-02-06T05:40:02.286Z,327.77
2023-02-06T05:43:07.295Z,248.10
2023-02-06T05:46:12.950Z,271.52
2023-02-06T05:49:16.708Z,257.80
2023-02-06T05:52:20.179Z,188.18
2023-02-06T05:55:23.427Z,187.60
2023-02-06T05:58:28.184Z,175.35
2023-02-06T06:01:31.508Z,224.27
2023-02-06T06:04:34.902Z,239.38
2023-02-06T06:07:38.388Z,195.45
2023-02-06T06:10:41.653Z,215.85
2023-02-06T06:13:46.300Z,166.73
2023-02-06T06:16:49.584Z,166.27
2023-02-06T06:19:52.876Z,160.38
2023-02-06T06:22:56.146Z,169.98
2023-02-06T06:25:59.414Z,185.05
2023-02-06T06:29:04.096Z,302.38
2023-02-06T06:32:07.664Z,210.45
2023-02-06T06:35:11.121Z,196.18
2023-02-06T06:38:14.373Z,309.10
2023-02-06T06:41:17.991Z,265.50
2023-02-06T06:44:22.977Z,225.30
2023-02-06T06:47:26.346Z,184.95
2023-02-06T06:50:29.858Z,241.27
2023-02-06T06:53:33.097Z,200.65
2023-02-06T06:56:36.413Z,190.07
2023-02-06T06:59:41.170Z,311.95
2023-02-06T07:02:44.877Z,210.38
2023-02-06T07:05:48.195Z,187.70
2023-02-06T07:08:51.552Z,224.25
2023-02-06T07:11:56.132Z,207.25
2023-02-06T07:15:00.888Z,204.25
2023-02-06T07:18:04.259Z,185.20
2023-02-06T07:21:08.946Z,184.27
2023-02-06T07:24:12.173Z,179.82
2023-02-06T07:27:15.847Z,193.55
2023-02-06T07:30:20.869Z,181.27
2023-02-06T07:33:24.073Z,192.00
2023-02-06T07:36:27.434Z,198.02
2023-02-06T07:39:31.136Z,206.60
2023-02-06T07:42:34.615Z,293.02
2023-02-06T07:45:47.871Z,236.00
2023-02-06T07:48:51.211Z,267.50
2023-02-06T07:51:54.512Z,350.92
2023-02-06T07:54:57.768Z,238.40
2023-02-06T07:58:00.985Z,376.70
2023-02-06T08:01:09.827Z,344.42
2023-02-06T08:04:13.342Z,420.85
2023-02-06T08:07:18.805Z,359.92
2023-02-06T08:10:22.068Z,285.85
2023-02-06T08:13:25.295Z,391.80
2023-02-06T08:16:30.166Z,411.70
2023-02-06T08:19:33.403Z,423.30
2023-02-06T08:22:36.786Z,425.75
2023-02-06T08:25:40.083Z,386.75
2023-02-06T08:28:43.939Z,352.65
2023-02-06T08:31:48.633Z,333.63
2023-02-06T08:34:51.938Z,325.40
2023-02-06T08:37:55.281Z,377.15
2023-02-06T08:40:58.613Z,414.98
2023-02-06T08:44:03.195Z,457.17
2023-02-06T08:47:10.338Z,404.20
2023-02-06T08:50:13.814Z,387.20
2023-02-06T08:53:17.102Z,432.00
2023-02-06T08:56:20.337Z,358.13
2023-02-06T08:59:23.980Z,429.35
2023-02-06T09:02:28.801Z,476.60
2023-02-06T09:05:32.287Z,350.38
2023-02-06T09:08:35.988Z,403.30
2023-02-06T09:11:39.917Z,419.15
2023-02-06T09:14:43.350Z,403.55
2023-02-06T09:17:47.943Z,347.13
2023-02-06T09:20:51.283Z,368.63
2023-02-06T09:23:56.564Z,367.50
2023-02-06T09:27:01.041Z,337.17
2023-02-06T09:30:06.981Z,349.80
2023-02-06T09:33:11.626Z,324.95
2023-02-06T09:36:17.156Z,306.73
2023-02-06T09:39:20.431Z,319.27
2023-02-06T09:42:31.380Z,319.48
2023-02-06T09:45:35.111Z,316.73
2023-02-06T09:48:43.148Z,280.75
2023-02-06T09:52:11.889Z,241.88
2023-02-06T09:55:26.399Z,196.40
2023-02-06T09:58:37.972Z,201.60
2023-02-06T10:01:45.317Z,217.38
2023-02-06T10:04:56.906Z,201.60
2023-02-06T10:08:11.622Z,387.65
2023-02-06T10:11:20.769Z,242.43
2023-02-06T10:14:31.632Z,232.30
2023-02-06T10:17:38.132Z,208.13
2023-02-06T10:20:49.384Z,214.70
2023-02-06T10:23:59.432Z,256.88
2023-02-06T10:27:10.589Z,202.53
2023-02-06T10:30:19.983Z,206.90
2023-02-06T10:33:30.845Z,219.53
2023-02-06T10:36:51.297Z,389.10
2023-02-06T10:40:18.510Z,223.50
2023-02-06T10:43:29.138Z,198.48
2023-02-06T10:46:41.278Z,188.57
2023-02-06T10:49:51.415Z,360.88
2023-02-06T10:52:59.453Z,207.48
2023-02-06T10:56:06.781Z,148.75
2023-02-06T10:59:22.285Z,133.35
2023-02-06T11:02:28.688Z,117.15
2023-02-06T11:05:33.898Z,158.20
2023-02-06T11:08:42.467Z,136.73
2023-02-06T11:11:48.600Z,123.13
2023-02-06T11:14:53.404Z,120.38
2023-02-06T11:17:57.691Z,146.07
2023-02-06T11:21:01.062Z,148.50
2023-02-06T11:24:13.554Z,124.20
2023-02-06T11:27:21.116Z,112.40
2023-02-06T11:30:34.699Z,102.20
2023-02-06T11:33:42.644Z,115.03
2023-02-06T11:36:46.445Z,111.15
2023-02-06T11:39:51.141Z,109.95
2023-02-06T11:43:11.258Z,122.47
2023-02-06T11:46:18.261Z,124.65
2023-02-06T11:49:31.087Z,108.75
2023-02-06T11:52:35.452Z,96.65
2023-02-06T11:55:42.673Z,87.40
2023-02-06T11:58:47.146Z,86.57
2023-02-06T12:01:52.046Z,78.07
2023-02-06T12:05:03.601Z,78.93
2023-02-06T12:08:12.774Z,77.72
2023-02-06T12:11:24.728Z,79.38
2023-02-06T12:14:34.221Z,81.28
2023-02-06T12:17:41.733Z,64.80
2023-02-06T12:20:51.380Z,65.57
2023-02-06T12:23:57.347Z,53.88
2023-02-06T12:27:15.452Z,78.82
2023-02-06T12:30:31.265Z,73.90
2023-02-06T12:33:41.338Z,74.70
2023-02-06T12:37:00.146Z,74.18
2023-02-06T12:40:03.691Z,60.63
2023-02-06T12:43:14.087Z,64.20
2023-02-06T12:46:22.737Z,76.35
2023-02-06T12:49:30.872Z,75.60
2023-02-06T12:52:42.211Z,80.97
2023-02-06T12:55:58.479Z,86.30
2023-02-06T12:59:19.460Z,91.72
2023-02-06T13:02:45.922Z,91.80
2023-02-06T13:05:52.866Z,122.53
2023-02-06T13:08:59.010Z,87.80
2023-02-06T13:12:14.119Z,76.63
2023-02-06T13:15:25.066Z,93.55
2023-02-06T13:18:53.615Z,111.30
2023-02-06T13:22:38.648Z,108.35
2023-02-06T13:25:51.330Z,81.45
2023-02-06T13:29:03.535Z,98.60
2023-02-06T13:32:53.358Z,89.43
2023-02-06T13:36:00.694Z,84.78
2023-02-06T13:39:15.880Z,89.70
2023-02-06T13:42:36.110Z,89.38
2023-02-06T13:45:45.882Z,93.88
2023-02-06T13:49:14.564Z,56.63
2023-02-06T13:52:28.099Z,68.18
2023-02-06T13:55:45.797Z,109.93
2023-02-06T13:58:51.192Z,61.55
2023-02-06T14:01:55.759Z,63.85
2023-02-06T14:04:59.759Z,67.53
2023-02-06T14:08:24.557Z,67.03
2023-02-06T14:11:43.065Z,72.57
2023-02-06T14:14:57.799Z,125.03
2023-02-06T14:18:16.538Z,101.43
2023-02-06T14:21:39.274Z,102.22
2023-02-06T14:25:09.302Z,106.05
2023-02-06T14:31:44.384Z,106.63
2023-02-06T14:35:07.955Z,109.43
2023-02-06T14:38:47.099Z,127.47
2023-02-06T14:41:52.083Z,89.15
2023-02-06T14:44:58.354Z,108.50
2023-02-06T14:48:03.993Z,109.22
2023-02-06T14:51:09.520Z,127.63
2023-02-06T14:54:30.655Z,128.45
2023-02-06T14:57:35.574Z,125.20
2023-02-06T15:00:39.105Z,131.50
2023-02-06T15:03:47.295Z,126.95
2023-02-06T15:06:56.008Z,125.13
2023-02-06T15:10:07.532Z,129.07
2023-02-06T15:13:22.654Z,134.75
2023-02-06T15:16:26.081Z,135.15
2023-02-06T15:19:35.538Z,152.10
2023-02-06T15:22:38.968Z,146.73
2023-02-06T15:26:00.733Z,159.93
2023-02-06T15:29:07.796Z,170.10
2023-02-06T15:32:25.953Z,179.38
2023-02-06T15:35:33.235Z,176.27
2023-02-06T15:38:37.336Z,196.77
2023-02-06T15:41:42.756Z,202.65
2023-02-06T15:44:48.802Z,216.23
2023-02-06T15:47:54.531Z,223.18
2023-02-06T15:51:03.291Z,223.23
2023-02-06T15:54:09.705Z,208.57
2023-02-06T15:57:28.545Z,239.68
2023-02-06T16:00:36.155Z,240.00
2023-02-06T16:03:42.763Z,234.80
2023-02-06T16:06:47.726Z,269.55
2023-02-06T16:09:55.721Z,287.70
2023-02-06T16:13:01.891Z,310.33
2023-02-06T16:16:21.813Z,328.50
2023-02-06T16:19:47.813Z,337.77
2023-02-06T16:22:51.587Z,335.08
2023-02-06T16:26:04.752Z,354.23
2023-02-06T16:29:22.433Z,347.50
2023-02-06T16:32:31.318Z,445.75
2023-02-06T16:35:34.655Z,400.98
2023-02-06T16:38:38.019Z,405.95
2023-02-06T16:41:43.252Z,377.38
2023-02-06T16:44:50.035Z,352.42
2023-02-06T16:47:55.763Z,368.10
2023-02-06T16:51:00.968Z,366.90
2023-02-06T16:54:08.008Z,382.73
2023-02-06T16:57:22.501Z,395.83
2023-02-06T17:00:33.713Z,380.83
2023-02-06T17:03:38.808Z,356.05
2023-02-06T17:06:42.621Z,360.15
2023-02-06T17:09:47.448Z,361.27
2023-02-06T17:12:51.406Z,373.65
2023-02-06T17:15:55.273Z,366.30
2023-02-06T17:19:00.843Z,340.73
2023-02-06T17:22:04.202Z,363.58
2023-02-06T17:25:08.666Z,354.35
2023-02-06T17:28:16.412Z,348.48
2023-02-06T17:31:20.461Z,351.42
2023-02-06T17:34:26.132Z,362.02
2023-02-06T17:37:29.775Z,381.05
2023-02-06T17:40:36.363Z,361.55
2023-02-06T17:43:40.206Z,345.33
2023-02-06T17:46:44.217Z,379.35
2023-02-06T17:49:49.265Z,332.80
2023-02-06T17:52:55.642Z,351.33
2023-02-06T17:56:04.535Z,360.38
2023-02-06T17:59:08.363Z,360.05
2023-02-06T18:02:14.596Z,353.70
2023-02-06T18:05:23.336Z,334.95
2023-02-06T18:08:27.416Z,330.52
2023-02-06T18:11:31.784Z,354.30
2023-02-06T18:14:36.073Z,365.35
2023-02-06T18:17:39.832Z,334.83
2023-02-06T18:20:45.509Z,389.52
2023-02-06T18:23:49.735Z,381.77
2023-02-06T18:26:53.524Z,360.60
2023-02-06T18:29:57.911Z,356.83
2023-02-06T18:33:02.265Z,356.05
2023-02-06T18:36:08.771Z,358.90
2023-02-06T18:39:14.274Z,384.88
2023-02-06T18:42:35.289Z,368.63
2023-02-06T18:45:40.813Z,345.92
2023-02-06T18:48:46.280Z,345.10
2023-02-06T18:51:51.503Z,359.60
2023-02-06T18:54:55.419Z,394.40
2023-02-06T18:57:59.288Z,393.52
2023-02-06T19:01:03.409Z,327.83
2023-02-06T19:04:07.216Z,366.63
2023-02-06T19:07:12.752Z,343.00
2023-02-06T19:10:17.003Z,339.25
2023-02-06T19:13:21.966Z,319.73
2023-02-06T19:16:29.691Z,332.23
2023-02-06T19:19:33.397Z,326.08
2023-02-06T19:22:39.524Z,335.48
2023-02-06T19:25:43.310Z,334.05
2023-02-06T19:28:47.329Z,342.10
2023-02-06T19:31:53.020Z,331.17
2023-02-06T19:34:57.859Z,331.65
2023-02-06T19:38:03.955Z,347.58
2023-02-06T19:41:09.046Z,317.05
2023-02-06T19:44:14.957Z,316.85
2023-02-06T19:47:18.965Z,341.88
2023-02-06T19:50:22.980Z,341.27
2023-02-06T19:53:28.523Z,319.70
2023-02-06T19:56:34.653Z,314.10
2023-02-06T19:59:38.407Z,308.92
2023-02-06T20:02:42.329Z,304.08
2023-02-06T20:05:45.931Z,330.02
2023-02-06T20:08:51.213Z,325.55
2023-02-06T20:12:02.038Z,323.05
2023-02-06T20:15:30.363Z,313.90
2023-02-06T20:18:54.109Z,332.90
2023-02-06T20:22:40.408Z,302.35
2023-02-06T20:26:55.321Z,325.10
2023-02-06T20:30:27.912Z,331.42
2023-02-06T20:43:53.709Z,289.00
2023-02-06T20:47:36.774Z,346.30
2023-02-06T20:50:48.064Z,286.55
2023-02-06T20:54:01.955Z,304.17
2023-02-06T20:57:07.148Z,292.58
2023-02-06T21:00:15.228Z,254.43
2023-02-06T21:03:23.091Z,273.63
2023-02-06T21:06:28.085Z,239.75
2023-02-06T21:09:32.093Z,291.52
2023-02-06T21:12:35.682Z,253.90
2023-02-06T21:15:41.134Z,280.38
2023-02-06T21:18:44.886Z,284.00
2023-02-06T21:21:49.218Z,277.05
2023-02-06T21:24:53.085Z,262.33
2023-02-06T21:27:57.942Z,276.77
2023-02-06T21:31:05.117Z,268.65
2023-02-06T21:34:10.638Z,293.63
2023-02-06T21:37:14.556Z,278.27
2023-02-06T21:40:18.981Z,279.88
2023-02-06T21:43:22.791Z,297.45
2023-02-06T21:46:30.379Z,297.92
2023-02-06T21:49:34.061Z,285.02
2023-02-06T21:52:37.838Z,310.05
2023-02-06T21:55:45.106Z,308.58
2023-02-06T21:58:49.159Z,317.75
2023-02-06T22:01:56.408Z,281.67
2023-02-06T22:05:01.024Z,275.20
2023-02-06T22:08:04.815Z,298.48
2023-02-06T22:11:15.913Z,309.95
2023-02-06T22:14:21.406Z,311.00
2023-02-06T22:17:26.774Z,291.23
2023-02-06T22:20:31.950Z,263.20
2023-02-06T22:23:36.431Z,268.38
2023-02-06T22:26:41.487Z,286.48
2023-02-06T22:29:45.054Z,284.25
2023-02-06T22:32:49.865Z,302.83
2023-02-06T22:35:53.287Z,272.15
2023-02-06T22:38:59.507Z,277.85
2023-02-06T22:42:02.905Z,270.35
2023-02-06T22:45:07.447Z,272.25
2023-02-06T22:48:12.530Z,293.33
2023-02-06T22:51:15.986Z,336.13
2023-02-06T22:54:19.856Z,271.05
2023-02-06T22:57:24.856Z,272.20
2023-02-06T23:00:28.868Z,321.23
2023-02-06T23:03:33.852Z,291.05
2023-02-06T23:06:37.552Z,275.83
2023-02-06T23:09:41.681Z,277.90
2023-02-06T23:12:44.975Z,294.00
2023-02-06T23:15:48.482Z,297.27
2023-02-06T23:18:54.570Z,358.27
2023-02-06T23:21:58.786Z,284.70
2023-02-06T23:25:03.282Z,312.13
2023-02-06T23:28:14.302Z,310.85
2023-02-06T23:31:19.539Z,333.05
2023-02-06T23:34:25.069Z,315.05
2023-02-06T23:37:28.499Z,318.48
2023-02-06T23:40:34.906Z,544.00
2023-02-06T23:43:38.602Z,328.10
2023-02-06T23:46:44.072Z,320.35
2023-02-06T23:49:48.806Z,336.73
2023-02-06T23:52:52.709Z,323.05
2023-02-06T23:55:56.055Z,329.48
2023-02-06T23:59:01.098Z,390.63
